sensor_id;sensor_type;location;lat;lon;timestamp;temperature;humidity
29551;DHT22;16488;52.396;10.696;2024-01-27T00:00:17;5.20;99.90
29551;DHT22;16488;52.396;10.696;2024-01-27T00:02:43;5.20;99.90
29551;DHT22;16488;52.396;10.696;2024-01-27T00:05:09;5.10;99.90
29551;DHT22;16488;52.396;10.696;2024-01-27T00:07:35;5.20;99.90
29551;DHT22;16488;52.396;10.696;2024-01-27T00:10:02;5.20;99.90
29551;DHT22;16488;52.396;10.696;2024-01-27T00:12:28;5.10;99.90
29551;DHT22;16488;52.396;10.696;2024-01-27T00:14:53;5.10;99.90
29551;DHT22;16488;52.396;10.696;2024-01-27T00:17:19;5.10;99.90
29551;DHT22;16488;52.396;10.696;2024-01-27T00:19:50;5.10;99.90
29551;DHT22;16488;52.396;10.696;2024-01-27T00:22:15;5.00;99.90
29551;DHT22;16488;52.396;10.696;2024-01-27T00:24:42;5.00;99.90
29551;DHT22;16488;52.396;10.696;2024-01-27T00:27:08;5.00;99.90
29551;DHT22;16488;52.396;10.696;2024-01-27T00:29:34;5.00;99.90
29551;DHT22;16488;52.396;10.696;2024-01-27T00:32:00;4.90;99.90
29551;DHT22;16488;52.396;10.696;2024-01-27T00:34:25;4.90;99.90
29551;DHT22;16488;52.396;10.696;2024-01-27T00:36:51;5.00;99.90
29551;DHT22;16488;52.396;10.696;2024-01-27T00:39:18;5.00;99.90
29551;DHT22;16488;52.396;10.696;2024-01-27T00:41:44;5.00;99.90
29551;DHT22;16488;52.396;10.696;2024-01-27T00:44:10;5.00;99.90
29551;DHT22;16488;52.396;10.696;2024-01-27T00:46:39;5.00;99.90
29551;DHT22;16488;52.396;10.696;2024-01-27T00:49:04;5.10;99.90
29551;DHT22;16488;52.396;10.696;2024-01-27T00:51:30;5.10;99.90
29551;DHT22;16488;52.396;10.696;2024-01-27T00:53:56;5.10;99.90
29551;DHT22;16488;52.396;10.696;2024-01-27T00:56:22;5.10;99.90
29551;DHT22;16488;52.396;10.696;2024-01-27T00:58:48;5.10;99.90
29551;DHT22;16488;52.396;10.696;2024-01-27T01:01:13;5.10;99.90
29551;DHT22;16488;52.396;10.696;2024-01-27T01:03:39;5.20;99.90
29551;DHT22;16488;52.396;10.696;2024-01-27T01:06:05;5.10;99.90
29551;DHT22;16488;52.396;10.696;2024-01-27T01:08:31;5.10;99.90
29551;DHT22;16488;52.396;10.696;2024-01-27T01:10:57;5.20;99.90
29551;DHT22;16488;52.396;10.696;2024-01-27T01:13:23;5.10;99.90
29551;DHT22;16488;52.396;10.696;2024-01-27T01:15:49;5.20;99.90
29551;DHT22;16488;52.396;10.696;2024-01-27T01:18:15;5.10;99.90
29551;DHT22;16488;52.396;10.696;2024-01-27T01:20:40;5.10;99.90
29551;DHT22;16488;52.396;10.696;2024-01-27T01:23:07;5.10;99.90
29551;DHT22;16488;52.396;10.696;2024-01-27T01:25:32;5.10;99.90
29551;DHT22;16488;52.396;10.696;2024-01-27T01:27:58;5.10;99.90
29551;DHT22;16488;52.396;10.696;2024-01-27T01:30:23;5.00;99.90
29551;DHT22;16488;52.396;10.696;2024-01-27T01:32:49;5.00;99.90
29551;DHT22;16488;52.396;10.696;2024-01-27T01:35:15;4.90;99.90
29551;DHT22;16488;52.396;10.696;2024-01-27T01:37:41;4.90;99.90
29551;DHT22;16488;52.396;10.696;2024-01-27T01:40:06;4.80;99.90
29551;DHT22;16488;52.396;10.696;2024-01-27T01:42:32;4.80;99.90
29551;DHT22;16488;52.396;10.696;2024-01-27T01:44:58;4.70;99.90
29551;DHT22;16488;52.396;10.696;2024-01-27T01:47:23;4.70;99.90
29551;DHT22;16488;52.396;10.696;2024-01-27T01:49:49;4.70;99.90
29551;DHT22;16488;52.396;10.696;2024-01-27T01:52:15;4.70;99.90
29551;DHT22;16488;52.396;10.696;2024-01-27T01:54:47;4.70;99.90
29551;DHT22;16488;52.396;10.696;2024-01-27T01:57:13;4.80;99.90
29551;DHT22;16488;52.396;10.696;2024-01-27T01:59:39;4.80;99.90
29551;DHT22;16488;52.396;10.696;2024-01-27T02:02:06;4.90;99.90
29551;DHT22;16488;52.396;10.696;2024-01-27T02:04:44;4.90;99.90
29551;DHT22;16488;52.396;10.696;2024-01-27T02:07:11;5.00;99.90
29551;DHT22;16488;52.396;10.696;2024-01-27T02:09:36;5.00;99.90
29551;DHT22;16488;52.396;10.696;2024-01-27T02:12:02;5.00;99.90
29551;DHT22;16488;52.396;10.696;2024-01-27T02:14:28;5.00;99.90
29551;DHT22;16488;52.396;10.696;2024-01-27T02:16:53;5.00;99.90
29551;DHT22;16488;52.396;10.696;2024-01-27T02:19:19;5.00;99.90
29551;DHT22;16488;52.396;10.696;2024-01-27T02:21:44;5.00;99.90
29551;DHT22;16488;52.396;10.696;2024-01-27T02:24:10;5.00;99.90
29551;DHT22;16488;52.396;10.696;2024-01-27T02:26:36;5.10;99.90
29551;DHT22;16488;52.396;10.696;2024-01-27T02:29:01;5.10;99.90
29551;DHT22;16488;52.396;10.696;2024-01-27T02:31:27;5.10;99.90
29551;DHT22;16488;52.396;10.696;2024-01-27T02:33:52;5.10;99.90
29551;DHT22;16488;52.396;10.696;2024-01-27T02:36:18;5.10;99.90
29551;DHT22;16488;52.396;10.696;2024-01-27T02:38:43;5.10;99.90
29551;DHT22;16488;52.396;10.696;2024-01-27T02:41:09;5.10;99.90
29551;DHT22;16488;52.396;10.696;2024-01-27T02:43:36;5.10;99.90
29551;DHT22;16488;52.396;10.696;2024-01-27T02:46:01;5.10;99.90
29551;DHT22;16488;52.396;10.696;2024-01-27T02:48:27;5.20;99.90
29551;DHT22;16488;52.396;10.696;2024-01-27T02:50:52;5.20;99.90
29551;DHT22;16488;52.396;10.696;2024-01-27T02:53:18;5.20;99.90
29551;DHT22;16488;52.396;10.696;2024-01-27T02:55:43;5.20;99.90
29551;DHT22;16488;52.396;10.696;2024-01-27T02:58:10;5.20;99.90
29551;DHT22;16488;52.396;10.696;2024-01-27T03:00:35;5.30;99.90
29551;DHT22;16488;52.396;10.696;2024-01-27T03:03:01;5.30;99.90
29551;DHT22;16488;52.396;10.696;2024-01-27T03:05:26;5.30;99.90
29551;DHT22;16488;52.396;10.696;2024-01-27T03:07:52;5.30;99.90
29551;DHT22;16488;52.396;10.696;2024-01-27T03:10:18;5.30;99.90
29551;DHT22;16488;52.396;10.696;2024-01-27T03:12:43;5.20;99.90
29551;DHT22;16488;52.396;10.696;2024-01-27T03:15:09;5.20;99.90
29551;DHT22;16488;52.396;10.696;2024-01-27T03:17:34;5.20;99.90
29551;DHT22;16488;52.396;10.696;2024-01-27T03:20:00;5.20;99.90
29551;DHT22;16488;52.396;10.696;2024-01-27T03:22:25;5.20;99.90
29551;DHT22;16488;52.396;10.696;2024-01-27T03:24:51;5.20;99.90
29551;DHT22;16488;52.396;10.696;2024-01-27T03:27:18;5.10;99.90
29551;DHT22;16488;52.396;10.696;2024-01-27T03:29:44;5.10;99.90
29551;DHT22;16488;52.396;10.696;2024-01-27T03:32:09;5.10;99.90
29551;DHT22;16488;52.396;10.696;2024-01-27T03:34:35;5.10;99.90
29551;DHT22;16488;52.396;10.696;2024-01-27T03:37:00;5.00;99.90
29551;DHT22;16488;52.396;10.696;2024-01-27T03:39:26;5.00;99.90
29551;DHT22;16488;52.396;10.696;2024-01-27T03:41:51;5.00;99.90
29551;DHT22;16488;52.396;10.696;2024-01-27T03:44:17;5.00;99.90
29551;DHT22;16488;52.396;10.696;2024-01-27T03:46:42;5.00;99.90
29551;DHT22;16488;52.396;10.696;2024-01-27T03:49:08;5.00;99.90
29551;DHT22;16488;52.396;10.696;2024-01-27T03:51:34;5.00;99.90
29551;DHT22;16488;52.396;10.696;2024-01-27T03:53:59;5.00;99.90
29551;DHT22;16488;52.396;10.696;2024-01-27T03:56:25;4.90;99.90
29551;DHT22;16488;52.396;10.696;2024-01-27T03:58:50;4.90;99.90
29551;DHT22;16488;52.396;10.696;2024-01-27T04:01:16;4.90;99.90
29551;DHT22;16488;52.396;10.696;2024-01-27T04:03:41;4.90;99.90
29551;DHT22;16488;52.396;10.696;2024-01-27T04:06:07;4.90;99.90
29551;DHT22;16488;52.396;10.696;2024-01-27T04:08:32;4.90;99.90
29551;DHT22;16488;52.396;10.696;2024-01-27T04:10:58;4.90;99.90
29551;DHT22;16488;52.396;10.696;2024-01-27T04:13:23;4.90;99.90
29551;DHT22;16488;52.396;10.696;2024-01-27T04:15:49;4.90;99.90
29551;DHT22;16488;52.396;10.696;2024-01-27T04:18:16;4.90;99.90
29551;DHT22;16488;52.396;10.696;2024-01-27T04:20:42;4.90;99.90
29551;DHT22;16488;52.396;10.696;2024-01-27T04:23:07;4.90;99.90
29551;DHT22;16488;52.396;10.696;2024-01-27T04:25:33;4.80;99.90
29551;DHT22;16488;52.396;10.696;2024-01-27T04:27:59;4.80;99.90
29551;DHT22;16488;52.396;10.696;2024-01-27T04:30:24;4.90;99.90
29551;DHT22;16488;52.396;10.696;2024-01-27T04:32:50;4.90;99.90
29551;DHT22;16488;52.396;10.696;2024-01-27T04:35:17;4.80;99.90
29551;DHT22;16488;52.396;10.696;2024-01-27T04:37:42;4.80;99.90
29551;DHT22;16488;52.396;10.696;2024-01-27T04:40:09;4.80;99.90
29551;DHT22;16488;52.396;10.696;2024-01-27T04:42:37;4.80;99.90
29551;DHT22;16488;52.396;10.696;2024-01-27T04:45:03;4.80;99.90
29551;DHT22;16488;52.396;10.696;2024-01-27T04:47:30;4.80;99.90
29551;DHT22;16488;52.396;10.696;2024-01-27T04:49:55;4.80;99.90
29551;DHT22;16488;52.396;10.696;2024-01-27T04:52:22;4.80;99.90
29551;DHT22;16488;52.396;10.696;2024-01-27T04:54:48;4.80;99.90
29551;DHT22;16488;52.396;10.696;2024-01-27T04:57:13;4.80;99.90
29551;DHT22;16488;52.396;10.696;2024-01-27T04:59:39;4.70;99.90
29551;DHT22;16488;52.396;10.696;2024-01-27T05:02:04;4.70;99.90
29551;DHT22;16488;52.396;10.696;2024-01-27T05:04:30;4.70;99.90
29551;DHT22;16488;52.396;10.696;2024-01-27T05:06:56;4.60;99.90
29551;DHT22;16488;52.396;10.696;2024-01-27T05:09:22;4.60;99.90
29551;DHT22;16488;52.396;10.696;2024-01-27T05:11:48;4.50;99.90
29551;DHT22;16488;52.396;10.696;2024-01-27T05:14:14;4.40;99.90
29551;DHT22;16488;52.396;10.696;2024-01-27T05:16:39;4.40;99.90
29551;DHT22;16488;52.396;10.696;2024-01-27T05:19:05;4.40;99.90
29551;DHT22;16488;52.396;10.696;2024-01-27T05:21:30;4.40;99.90
29551;DHT22;16488;52.396;10.696;2024-01-27T05:23:56;4.40;99.90
29551;DHT22;16488;52.396;10.696;2024-01-27T05:26:21;4.40;99.90
29551;DHT22;16488;52.396;10.696;2024-01-27T05:28:47;4.30;99.90
29551;DHT22;16488;52.396;10.696;2024-01-27T05:31:13;4.30;99.90
29551;DHT22;16488;52.396;10.696;2024-01-27T05:33:38;4.20;99.90
29551;DHT22;16488;52.396;10.696;2024-01-27T05:36:07;4.10;99.90
29551;DHT22;16488;52.396;10.696;2024-01-27T05:38:32;4.00;99.90
29551;DHT22;16488;52.396;10.696;2024-01-27T05:41:01;4.00;99.90
29551;DHT22;16488;52.396;10.696;2024-01-27T05:43:27;3.90;99.90
29551;DHT22;16488;52.396;10.696;2024-01-27T05:45:53;3.80;99.90
29551;DHT22;16488;52.396;10.696;2024-01-27T05:48:18;3.80;99.90
29551;DHT22;16488;52.396;10.696;2024-01-27T05:50:54;3.70;99.90
29551;DHT22;16488;52.396;10.696;2024-01-27T05:53:19;3.70;99.90
29551;DHT22;16488;52.396;10.696;2024-01-27T05:55:46;3.60;99.90
29551;DHT22;16488;52.396;10.696;2024-01-27T05:58:12;3.40;99.90
29551;DHT22;16488;52.396;10.696;2024-01-27T06:00:37;3.40;99.90
29551;DHT22;16488;52.396;10.696;2024-01-27T06:03:03;3.40;99.90
29551;DHT22;16488;52.396;10.696;2024-01-27T06:05:29;3.30;99.90
29551;DHT22;16488;52.396;10.696;2024-01-27T06:07:54;3.20;99.90
29551;DHT22;16488;52.396;10.696;2024-01-27T06:10:20;3.20;99.90
29551;DHT22;16488;52.396;10.696;2024-01-27T06:12:46;3.20;99.90
29551;DHT22;16488;52.396;10.696;2024-01-27T06:15:12;3.10;99.90
29551;DHT22;16488;52.396;10.696;2024-01-27T06:17:38;3.10;99.90
29551;DHT22;16488;52.396;10.696;2024-01-27T06:20:03;3.10;99.90
29551;DHT22;16488;52.396;10.696;2024-01-27T06:22:29;3.10;99.90
29551;DHT22;16488;52.396;10.696;2024-01-27T06:24:57;3.10;99.90
29551;DHT22;16488;52.396;10.696;2024-01-27T06:27:22;3.10;99.90
29551;DHT22;16488;52.396;10.696;2024-01-27T06:29:48;3.10;99.90
29551;DHT22;16488;52.396;10.696;2024-01-27T06:32:14;3.10;99.90
29551;DHT22;16488;52.396;10.696;2024-01-27T06:34:41;3.10;99.90
29551;DHT22;16488;52.396;10.696;2024-01-27T06:37:06;3.10;99.90
29551;DHT22;16488;52.396;10.696;2024-01-27T06:39:32;3.10;99.90
29551;DHT22;16488;52.396;10.696;2024-01-27T06:41:57;3.10;99.90
29551;DHT22;16488;52.396;10.696;2024-01-27T06:44:23;3.10;99.90
29551;DHT22;16488;52.396;10.696;2024-01-27T06:46:48;3.10;99.90
29551;DHT22;16488;52.396;10.696;2024-01-27T06:49:15;3.10;99.90
29551;DHT22;16488;52.396;10.696;2024-01-27T06:51:41;3.10;99.90
29551;DHT22;16488;52.396;10.696;2024-01-27T06:54:07;3.10;99.90
29551;DHT22;16488;52.396;10.696;2024-01-27T06:56:32;3.10;99.90
29551;DHT22;16488;52.396;10.696;2024-01-27T06:58:58;3.10;99.90
29551;DHT22;16488;52.396;10.696;2024-01-27T07:01:24;3.00;99.90
29551;DHT22;16488;52.396;10.696;2024-01-27T07:03:49;3.00;99.90
29551;DHT22;16488;52.396;10.696;2024-01-27T07:06:15;2.90;99.90
29551;DHT22;16488;52.396;10.696;2024-01-27T07:08:41;3.00;99.90
29551;DHT22;16488;52.396;10.696;2024-01-27T07:11:07;2.90;99.90
29551;DHT22;16488;52.396;10.696;2024-01-27T07:13:33;3.00;99.90
29551;DHT22;16488;52.396;10.696;2024-01-27T07:15:59;2.90;99.90
29551;DHT22;16488;52.396;10.696;2024-01-27T07:18:24;3.00;99.90
29551;DHT22;16488;52.396;10.696;2024-01-27T07:20:50;3.00;99.90
29551;DHT22;16488;52.396;10.696;2024-01-27T07:23:16;3.00;99.90
29551;DHT22;16488;52.396;10.696;2024-01-27T07:25:43;2.90;99.90
29551;DHT22;16488;52.396;10.696;2024-01-27T07:28:08;3.00;99.90
29551;DHT22;16488;52.396;10.696;2024-01-27T07:30:34;2.90;99.90
29551;DHT22;16488;52.396;10.696;2024-01-27T07:32:59;3.00;99.90
29551;DHT22;16488;52.396;10.696;2024-01-27T07:35:25;3.00;99.90
29551;DHT22;16488;52.396;10.696;2024-01-27T07:37:51;3.10;99.90
29551;DHT22;16488;52.396;10.696;2024-01-27T07:40:16;3.10;99.90
29551;DHT22;16488;52.396;10.696;2024-01-27T07:42:42;3.20;99.90
29551;DHT22;16488;52.396;10.696;2024-01-27T07:45:07;3.20;99.90
29551;DHT22;16488;52.396;10.696;2024-01-27T07:47:36;3.20;99.90
29551;DHT22;16488;52.396;10.696;2024-01-27T07:50:02;3.20;99.90
29551;DHT22;16488;52.396;10.696;2024-01-27T07:52:28;3.20;99.90
29551;DHT22;16488;52.396;10.696;2024-01-27T07:54:53;3.20;99.90
29551;DHT22;16488;52.396;10.696;2024-01-27T07:57:19;3.20;99.90
29551;DHT22;16488;52.396;10.696;2024-01-27T07:59:45;3.20;99.90
29551;DHT22;16488;52.396;10.696;2024-01-27T08:02:10;3.20;99.90
29551;DHT22;16488;52.396;10.696;2024-01-27T08:04:37;3.30;99.90
29551;DHT22;16488;52.396;10.696;2024-01-27T08:07:03;3.40;99.90
29551;DHT22;16488;52.396;10.696;2024-01-27T08:09:35;3.30;99.90
29551;DHT22;16488;52.396;10.696;2024-01-27T08:12:01;3.30;99.90
29551;DHT22;16488;52.396;10.696;2024-01-27T08:14:27;3.40;99.90
29551;DHT22;16488;52.396;10.696;2024-01-27T08:16:55;3.40;99.90
29551;DHT22;16488;52.396;10.696;2024-01-27T08:19:21;3.50;99.90
29551;DHT22;16488;52.396;10.696;2024-01-27T08:21:47;3.50;99.90
29551;DHT22;16488;52.396;10.696;2024-01-27T08:24:13;3.60;99.90
29551;DHT22;16488;52.396;10.696;2024-01-27T08:26:38;3.60;99.90
29551;DHT22;16488;52.396;10.696;2024-01-27T08:29:04;3.70;99.90
29551;DHT22;16488;52.396;10.696;2024-01-27T08:31:30;3.80;99.90
29551;DHT22;16488;52.396;10.696;2024-01-27T08:33:55;3.80;99.90
29551;DHT22;16488;52.396;10.696;2024-01-27T08:36:21;3.80;99.90
29551;DHT22;16488;52.396;10.696;2024-01-27T08:38:47;3.80;99.90
29551;DHT22;16488;52.396;10.696;2024-01-27T08:41:12;3.90;99.90
29551;DHT22;16488;52.396;10.696;2024-01-27T08:43:38;3.90;99.90
29551;DHT22;16488;52.396;10.696;2024-01-27T08:46:03;4.00;99.90
29551;DHT22;16488;52.396;10.696;2024-01-27T08:48:29;4.00;99.90
29551;DHT22;16488;52.396;10.696;2024-01-27T08:50:54;4.10;99.90
29551;DHT22;16488;52.396;10.696;2024-01-27T08:53:20;4.20;99.90
29551;DHT22;16488;52.396;10.696;2024-01-27T08:55:46;4.20;99.90
29551;DHT22;16488;52.396;10.696;2024-01-27T08:58:11;4.20;99.90
29551;DHT22;16488;52.396;10.696;2024-01-27T09:00:37;4.30;99.90
29551;DHT22;16488;52.396;10.696;2024-01-27T09:03:02;4.30;99.90
29551;DHT22;16488;52.396;10.696;2024-01-27T09:05:28;4.40;99.90
29551;DHT22;16488;52.396;10.696;2024-01-27T09:07:54;4.50;99.90
29551;DHT22;16488;52.396;10.696;2024-01-27T09:10:19;4.50;99.90
29551;DHT22;16488;52.396;10.696;2024-01-27T09:12:45;4.60;99.90
29551;DHT22;16488;52.396;10.696;2024-01-27T09:15:11;4.70;99.90
29551;DHT22;16488;52.396;10.696;2024-01-27T09:17:36;4.70;99.90
29551;DHT22;16488;52.396;10.696;2024-01-27T09:20:02;4.80;99.90
29551;DHT22;16488;52.396;10.696;2024-01-27T09:22:28;4.80;99.90
29551;DHT22;16488;52.396;10.696;2024-01-27T09:24:53;5.00;99.90
29551;DHT22;16488;52.396;10.696;2024-01-27T09:27:20;5.00;99.90
29551;DHT22;16488;52.396;10.696;2024-01-27T09:29:46;5.10;99.90
29551;DHT22;16488;52.396;10.696;2024-01-27T09:32:11;5.20;99.90
29551;DHT22;16488;52.396;10.696;2024-01-27T09:34:37;5.30;99.90
29551;DHT22;16488;52.396;10.696;2024-01-27T09:37:02;5.30;99.90
29551;DHT22;16488;52.396;10.696;2024-01-27T09:39:28;5.30;99.90
29551;DHT22;16488;52.396;10.696;2024-01-27T09:41:54;5.40;99.90
29551;DHT22;16488;52.396;10.696;2024-01-27T09:44:20;5.50;99.90
29551;DHT22;16488;52.396;10.696;2024-01-27T09:46:45;5.50;99.90
29551;DHT22;16488;52.396;10.696;2024-01-27T09:49:13;5.60;99.90
29551;DHT22;16488;52.396;10.696;2024-01-27T09:51:40;5.60;99.90
29551;DHT22;16488;52.396;10.696;2024-01-27T09:54:06;5.70;99.90
29551;DHT22;16488;52.396;10.696;2024-01-27T09:56:32;5.80;99.90
29551;DHT22;16488;52.396;10.696;2024-01-27T09:58:58;5.90;99.90
29551;DHT22;16488;52.396;10.696;2024-01-27T10:01:24;6.00;99.90
29551;DHT22;16488;52.396;10.696;2024-01-27T10:03:50;6.70;99.90
29551;DHT22;16488;52.396;10.696;2024-01-27T10:06:16;7.50;99.90
29551;DHT22;16488;52.396;10.696;2024-01-27T10:08:43;8.20;99.90
29551;DHT22;16488;52.396;10.696;2024-01-27T10:11:16;9.10;99.90
29551;DHT22;16488;52.396;10.696;2024-01-27T10:13:43;9.20;99.90
29551;DHT22;16488;52.396;10.696;2024-01-27T10:16:08;9.60;99.90
29551;DHT22;16488;52.396;10.696;2024-01-27T10:18:35;9.70;99.90
29551;DHT22;16488;52.396;10.696;2024-01-27T10:21:12;9.70;99.90
29551;DHT22;16488;52.396;10.696;2024-01-27T10:23:40;10.10;99.90
29551;DHT22;16488;52.396;10.696;2024-01-27T10:26:09;10.50;99.90
29551;DHT22;16488;52.396;10.696;2024-01-27T10:28:34;10.40;99.90
29551;DHT22;16488;52.396;10.696;2024-01-27T10:31:12;10.10;99.90
29551;DHT22;16488;52.396;10.696;2024-01-27T10:33:38;9.90;99.90
29551;DHT22;16488;52.396;10.696;2024-01-27T10:36:04;10.20;99.90
29551;DHT22;16488;52.396;10.696;2024-01-27T10:38:33;10.10;99.90
29551;DHT22;16488;52.396;10.696;2024-01-27T10:40:59;10.80;99.90
29551;DHT22;16488;52.396;10.696;2024-01-27T10:43:25;10.90;99.90
29551;DHT22;16488;52.396;10.696;2024-01-27T10:45:51;10.60;99.90
29551;DHT22;16488;52.396;10.696;2024-01-27T10:48:17;10.30;99.90
29551;DHT22;16488;52.396;10.696;2024-01-27T10:50:43;10.60;99.90
29551;DHT22;16488;52.396;10.696;2024-01-27T10:53:09;10.70;99.90
29551;DHT22;16488;52.396;10.696;2024-01-27T10:55:35;10.60;99.90
29551;DHT22;16488;52.396;10.696;2024-01-27T10:58:02;10.50;99.90
29551;DHT22;16488;52.396;10.696;2024-01-27T11:00:28;10.30;99.90
29551;DHT22;16488;52.396;10.696;2024-01-27T11:02:54;10.20;99.90
29551;DHT22;16488;52.396;10.696;2024-01-27T11:05:22;10.40;99.90
29551;DHT22;16488;52.396;10.696;2024-01-27T11:07:49;10.70;99.90
29551;DHT22;16488;52.396;10.696;2024-01-27T11:10:16;10.60;99.90
29551;DHT22;16488;52.396;10.696;2024-01-27T11:12:42;10.30;99.90
29551;DHT22;16488;52.396;10.696;2024-01-27T11:15:07;10.60;99.90
29551;DHT22;16488;52.396;10.696;2024-01-27T11:17:39;10.80;99.90
29551;DHT22;16488;52.396;10.696;2024-01-27T11:20:07;11.00;99.90
29551;DHT22;16488;52.396;10.696;2024-01-27T11:22:33;10.70;99.90
29551;DHT22;16488;52.396;10.696;2024-01-27T11:27:30;10.60;99.90
29551;DHT22;16488;52.396;10.696;2024-01-27T11:29:56;10.40;99.90
29551;DHT22;16488;52.396;10.696;2024-01-27T11:32:21;10.10;99.90
29551;DHT22;16488;52.396;10.696;2024-01-27T11:34:47;10.40;99.90
29551;DHT22;16488;52.396;10.696;2024-01-27T11:37:16;10.20;99.90
29551;DHT22;16488;52.396;10.696;2024-01-27T11:39:42;10.80;99.90
29551;DHT22;16488;52.396;10.696;2024-01-27T11:42:08;11.10;99.90
29551;DHT22;16488;52.396;10.696;2024-01-27T11:44:34;11.20;99.90
29551;DHT22;16488;52.396;10.696;2024-01-27T11:47:00;11.30;99.90
29551;DHT22;16488;52.396;10.696;2024-01-27T11:49:25;11.10;99.90
29551;DHT22;16488;52.396;10.696;2024-01-27T11:51:52;10.40;99.90
29551;DHT22;16488;52.396;10.696;2024-01-27T11:54:17;10.20;99.90
29551;DHT22;16488;52.396;10.696;2024-01-27T11:56:43;10.10;99.90
29551;DHT22;16488;52.396;10.696;2024-01-27T11:59:09;10.60;99.90
29551;DHT22;16488;52.396;10.696;2024-01-27T12:01:35;10.50;99.90
29551;DHT22;16488;52.396;10.696;2024-01-27T12:04:02;10.50;99.90
29551;DHT22;16488;52.396;10.696;2024-01-27T12:06:28;10.60;99.90
29551;DHT22;16488;52.396;10.696;2024-01-27T12:08:55;9.80;99.90
29551;DHT22;16488;52.396;10.696;2024-01-27T12:11:22;9.30;99.90
29551;DHT22;16488;52.396;10.696;2024-01-27T12:13:47;9.20;99.90
29551;DHT22;16488;52.396;10.696;2024-01-27T12:16:13;9.50;99.90
29551;DHT22;16488;52.396;10.696;2024-01-27T12:18:39;10.00;99.90
29551;DHT22;16488;52.396;10.696;2024-01-27T12:21:04;10.20;99.90
29551;DHT22;16488;52.396;10.696;2024-01-27T12:23:30;10.40;99.90
29551;DHT22;16488;52.396;10.696;2024-01-27T12:25:55;10.20;99.90
29551;DHT22;16488;52.396;10.696;2024-01-27T12:28:24;9.50;99.90
29551;DHT22;16488;52.396;10.696;2024-01-27T12:30:50;8.90;99.90
29551;DHT22;16488;52.396;10.696;2024-01-27T12:33:16;9.00;99.90
29551;DHT22;16488;52.396;10.696;2024-01-27T12:35:45;9.60;99.90
29551;DHT22;16488;52.396;10.696;2024-01-27T12:38:11;10.60;99.90
29551;DHT22;16488;52.396;10.696;2024-01-27T12:40:37;11.20;99.90
29551;DHT22;16488;52.396;10.696;2024-01-27T12:43:03;12.20;99.90
29551;DHT22;16488;52.396;10.696;2024-01-27T12:45:29;12.40;99.90
29551;DHT22;16488;52.396;10.696;2024-01-27T12:47:54;11.90;99.90
29551;DHT22;16488;52.396;10.696;2024-01-27T12:50:20;11.50;99.90
29551;DHT22;16488;52.396;10.696;2024-01-27T12:52:46;10.90;99.90
29551;DHT22;16488;52.396;10.696;2024-01-27T12:55:11;11.00;99.90
29551;DHT22;16488;52.396;10.696;2024-01-27T12:57:37;11.70;99.90
29551;DHT22;16488;52.396;10.696;2024-01-27T13:00:05;11.80;99.90
29551;DHT22;16488;52.396;10.696;2024-01-27T13:02:35;11.90;99.90
29551;DHT22;16488;52.396;10.696;2024-01-27T13:05:01;12.00;99.90
29551;DHT22;16488;52.396;10.696;2024-01-27T13:07:27;12.40;99.90
29551;DHT22;16488;52.396;10.696;2024-01-27T13:09:53;12.60;99.90
29551;DHT22;16488;52.396;10.696;2024-01-27T13:12:18;12.70;99.90
29551;DHT22;16488;52.396;10.696;2024-01-27T13:14:44;12.30;99.90
29551;DHT22;16488;52.396;10.696;2024-01-27T13:17:09;11.70;99.90
29551;DHT22;16488;52.396;10.696;2024-01-27T13:19:35;12.10;99.90
29551;DHT22;16488;52.396;10.696;2024-01-27T13:22:00;11.80;99.90
29551;DHT22;16488;52.396;10.696;2024-01-27T13:24:26;11.90;99.90
29551;DHT22;16488;52.396;10.696;2024-01-27T13:26:52;11.70;99.90
29551;DHT22;16488;52.396;10.696;2024-01-27T13:29:18;11.80;99.90
29551;DHT22;16488;52.396;10.696;2024-01-27T13:31:43;11.90;99.90
29551;DHT22;16488;52.396;10.696;2024-01-27T13:34:09;11.90;99.90
29551;DHT22;16488;52.396;10.696;2024-01-27T13:36:35;12.20;99.90
29551;DHT22;16488;52.396;10.696;2024-01-27T13:39:00;12.50;99.90
29551;DHT22;16488;52.396;10.696;2024-01-27T13:41:26;12.60;99.90
29551;DHT22;16488;52.396;10.696;2024-01-27T13:43:52;12.10;99.90
29551;DHT22;16488;52.396;10.696;2024-01-27T13:46:17;12.10;99.90
29551;DHT22;16488;52.396;10.696;2024-01-27T13:48:43;11.50;99.90
29551;DHT22;16488;52.396;10.696;2024-01-27T13:51:09;11.40;99.90
29551;DHT22;16488;52.396;10.696;2024-01-27T13:53:35;11.60;99.90
29551;DHT22;16488;52.396;10.696;2024-01-27T13:56:00;11.70;99.90
29551;DHT22;16488;52.396;10.696;2024-01-27T13:58:26;11.70;99.90
29551;DHT22;16488;52.396;10.696;2024-01-27T14:00:52;11.90;99.90
29551;DHT22;16488;52.396;10.696;2024-01-27T14:03:17;12.10;99.90
29551;DHT22;16488;52.396;10.696;2024-01-27T14:05:43;12.50;99.90
29551;DHT22;16488;52.396;10.696;2024-01-27T14:08:10;12.70;99.90
29551;DHT22;16488;52.396;10.696;2024-01-27T14:10:36;12.80;99.90
29551;DHT22;16488;52.396;10.696;2024-01-27T14:13:02;13.10;99.90
29551;DHT22;16488;52.396;10.696;2024-01-27T14:15:34;13.30;99.90
29551;DHT22;16488;52.396;10.696;2024-01-27T14:18:00;13.10;99.90
29551;DHT22;16488;52.396;10.696;2024-01-27T14:20:29;13.20;99.90
29551;DHT22;16488;52.396;10.696;2024-01-27T14:22:55;12.60;99.90
29551;DHT22;16488;52.396;10.696;2024-01-27T14:25:20;11.90;99.90
29551;DHT22;16488;52.396;10.696;2024-01-27T14:27:46;11.00;99.90
29551;DHT22;16488;52.396;10.696;2024-01-27T14:30:12;10.10;99.90
29551;DHT22;16488;52.396;10.696;2024-01-27T14:32:38;9.30;99.90
29551;DHT22;16488;52.396;10.696;2024-01-27T14:35:04;8.90;99.90
29551;DHT22;16488;52.396;10.696;2024-01-27T14:37:32;8.60;99.90
29551;DHT22;16488;52.396;10.696;2024-01-27T14:39:57;8.50;99.90
29551;DHT22;16488;52.396;10.696;2024-01-27T14:42:23;8.30;99.90
29551;DHT22;16488;52.396;10.696;2024-01-27T14:44:50;8.20;99.90
29551;DHT22;16488;52.396;10.696;2024-01-27T14:47:16;8.10;99.90
29551;DHT22;16488;52.396;10.696;2024-01-27T14:49:41;8.10;99.90
29551;DHT22;16488;52.396;10.696;2024-01-27T14:52:09;8.10;99.90
29551;DHT22;16488;52.396;10.696;2024-01-27T14:54:36;8.00;99.90
29551;DHT22;16488;52.396;10.696;2024-01-27T14:57:02;8.00;99.90
29551;DHT22;16488;52.396;10.696;2024-01-27T14:59:28;8.00;99.90
29551;DHT22;16488;52.396;10.696;2024-01-27T15:01:54;7.90;99.90
29551;DHT22;16488;52.396;10.696;2024-01-27T15:04:20;7.90;99.90
29551;DHT22;16488;52.396;10.696;2024-01-27T15:06:46;7.80;99.90
29551;DHT22;16488;52.396;10.696;2024-01-27T15:09:12;7.80;99.90
29551;DHT22;16488;52.396;10.696;2024-01-27T15:11:41;7.80;99.90
29551;DHT22;16488;52.396;10.696;2024-01-27T15:14:06;7.70;99.90
29551;DHT22;16488;52.396;10.696;2024-01-27T15:16:32;7.70;99.90
29551;DHT22;16488;52.396;10.696;2024-01-27T15:18:59;7.60;99.90
29551;DHT22;16488;52.396;10.696;2024-01-27T15:21:25;7.50;99.90